Tijuana, México

4:27 AM PST en Marzo 01, 2015 (GMT -0800)
Proteccion Civil-Oficinas Centrales-CMOE | Change Station
CLOSE
Current Station
Estación meteorológica personal
Location: TIJUANA, BAJA CALIFORNIA
Altura: 396 ft
Estaciones meteorológicas cercanas

Alt 396 ft 32.53 °N, 116.99 °W | Updated 9 minutes ago

Rain
Lluvia
53.7 ° F
Sensación térmica 53.7 ° F
N
4.0
Viento Variable Viento desde NNE

Hoy
Alta -- | Baja -- ° F
--% Posibilidad de precipitaciones
Ayer
Alta -- | Baja -- ° F
Precip. -- pul
6:15 AM 5:45 PM
Gibosa creciente, 85% visible
Presión 29.90 pul
Visibilidad 4.0 Millas
Nubes Baja 2800 ft
Nubes dispersas 3800 ft
Nublado 4700 ft
Punto de rocío 52 ° F
Humedad 93%
Precipitaciones 0.39 pul
Espesor de la nieve No disponible.
UV 0 de una escala de 12
Polen No disponible.
Calidad del aire No disponible.
Flu Activity No disponible.
METAR KSDM 011153Z AUTO 13007KT 4SM RA BR FEW028 SCT038 OVC047 12/11 A2990 RMK AO2 RAB09 SLP124 P0004 60005 70007 T01220106 10133 20122 58009

More Conditions Fewer Conditions

Presión 29.90 pul
Visibilidad 4.0 Millas
Nubes Baja 2800 ft
Nubes dispersas 3800 ft
Nublado 4700 ft
Punto de rocío 52 ° F
Humedad 93%
Precipitaciones 0.39 pul
Espesor de la nieve No disponible.
UV 0 de una escala de 12
Polen No disponible.
Calidad del aire No disponible.
Flu Activity No disponible.
METAR KSDM 011153Z AUTO 13007KT 4SM RA BR FEW028 SCT038 OVC047 12/11 A2990 RMK AO2 RAB09 SLP124 P0004 60005 70007 T01220106 10133 20122 58009

More Conditions Fewer Conditions

10-Day Weather Forecast

Almanac

Astronomía

Mar. 01, 2015 Salida Puesta
Hora real
Crepúsculo civil
Crepúsculo náutico
Crepúsculo astronómico
Luna
Horas de luz
Horas de luz
Tomorrow will be .
, % of the Moon is Illuminated

Extremos de hoy

Máximos del país Bajas del país

Community

WunderPhotos

Upload Photos

1,801,365 ¡fotos cargadas!

WunderBlogs® & News

Nearby

Calidad del aire

  Calidad del aire Índice AQ Contaminante
Not available.

Grosos de nieve

Estación Profundido Altura

Actividad de terremotos

Ciudad Distance Mag. Tiempo y dato
Magnitud mínima muestra es 2,5.

Temperaturas de aguas costeras

Lugar Temperatura

Estaciones meteorológicas cercanas